sensor_id;sensor_type;location;lat;lon;timestamp;P1;durP1;ratioP1;P2;durP2;ratioP2
7057;SDS011;3570;43.080;25.628;2023-06-10T00:02:17;10.50;;;7.53;;
7057;SDS011;3570;43.080;25.628;2023-06-10T00:05:01;12.40;;;7.90;;
7057;SDS011;3570;43.080;25.628;2023-06-10T00:07:45;10.87;;;7.43;;
7057;SDS011;3570;43.080;25.628;2023-06-10T00:10:29;11.57;;;7.37;;
7057;SDS011;3570;43.080;25.628;2023-06-10T00:13:13;13.57;;;7.60;;
7057;SDS011;3570;43.080;25.628;2023-06-10T00:15:58;11.03;;;7.30;;
7057;SDS011;3570;43.080;25.628;2023-06-10T00:18:42;12.90;;;8.37;;
7057;SDS011;3570;43.080;25.628;2023-06-10T00:21:27;15.13;;;7.70;;
7057;SDS011;3570;43.080;25.628;2023-06-10T00:24:11;9.87;;;7.20;;
7057;SDS011;3570;43.080;25.628;2023-06-10T00:26:57;7.57;;;6.10;;
7057;SDS011;3570;43.080;25.628;2023-06-10T00:29:41;11.93;;;6.50;;
7057;SDS011;3570;43.080;25.628;2023-06-10T00:32:25;15.80;;;6.63;;
7057;SDS011;3570;43.080;25.628;2023-06-10T00:35:10;8.73;;;6.57;;
7057;SDS011;3570;43.080;25.628;2023-06-10T00:37:54;8.93;;;6.23;;
7057;SDS011;3570;43.080;25.628;2023-06-10T00:40:41;8.07;;;6.50;;
7057;SDS011;3570;43.080;25.628;2023-06-10T00:43:25;11.20;;;6.43;;
7057;SDS011;3570;43.080;25.628;2023-06-10T00:46:10;7.93;;;5.30;;
7057;SDS011;3570;43.080;25.628;2023-06-10T00:48:55;8.10;;;5.57;;
7057;SDS011;3570;43.080;25.628;2023-06-10T00:51:39;7.43;;;5.60;;
7057;SDS011;3570;43.080;25.628;2023-06-10T00:54:24;7.27;;;5.93;;
7057;SDS011;3570;43.080;25.628;2023-06-10T00:57:09;8.20;;;5.80;;
7057;SDS011;3570;43.080;25.628;2023-06-10T00:59:54;7.80;;;5.97;;
7057;SDS011;3570;43.080;25.628;2023-06-10T01:02:38;9.03;;;5.53;;
7057;SDS011;3570;43.080;25.628;2023-06-10T01:05:23;8.30;;;6.07;;
7057;SDS011;3570;43.080;25.628;2023-06-10T01:10:57;9.53;;;5.60;;
7057;SDS011;3570;43.080;25.628;2023-06-10T01:13:43;10.77;;;5.90;;
7057;SDS011;3570;43.080;25.628;2023-06-10T01:16:29;11.20;;;6.23;;
7057;SDS011;3570;43.080;25.628;2023-06-10T01:19:13;11.63;;;7.43;;
7057;SDS011;3570;43.080;25.628;2023-06-10T01:22:01;14.53;;;8.40;;
7057;SDS011;3570;43.080;25.628;2023-06-10T01:24:45;17.80;;;10.23;;
7057;SDS011;3570;43.080;25.628;2023-06-10T01:27:33;17.00;;;9.67;;
7057;SDS011;3570;43.080;25.628;2023-06-10T01:30:24;16.80;;;10.37;;
7057;SDS011;3570;43.080;25.628;2023-06-10T01:33:13;21.20;;;10.30;;
7057;SDS011;3570;43.080;25.628;2023-06-10T01:36:01;14.77;;;10.30;;
7057;SDS011;3570;43.080;25.628;2023-06-10T01:38:47;15.90;;;7.80;;
7057;SDS011;3570;43.080;25.628;2023-06-10T01:41:33;11.37;;;6.63;;
7057;SDS011;3570;43.080;25.628;2023-06-10T01:44:19;11.27;;;6.83;;
7057;SDS011;3570;43.080;25.628;2023-06-10T01:47:06;9.67;;;8.00;;
7057;SDS011;3570;43.080;25.628;2023-06-10T01:49:50;10.87;;;7.17;;
7057;SDS011;3570;43.080;25.628;2023-06-10T01:52:34;17.53;;;8.47;;
7057;SDS011;3570;43.080;25.628;2023-06-10T01:55:18;13.73;;;8.03;;
7057;SDS011;3570;43.080;25.628;2023-06-10T01:58:02;12.60;;;7.00;;
7057;SDS011;3570;43.080;25.628;2023-06-10T02:00:46;14.93;;;8.77;;
7057;SDS011;3570;43.080;25.628;2023-06-10T02:03:30;13.87;;;9.70;;
7057;SDS011;3570;43.080;25.628;2023-06-10T02:06:14;15.80;;;9.53;;
7057;SDS011;3570;43.080;25.628;2023-06-10T02:08:58;17.50;;;9.70;;
7057;SDS011;3570;43.080;25.628;2023-06-10T02:11:42;15.47;;;9.40;;
7057;SDS011;3570;43.080;25.628;2023-06-10T02:14:26;15.07;;;9.37;;
7057;SDS011;3570;43.080;25.628;2023-06-10T02:17:10;13.13;;;8.80;;
7057;SDS011;3570;43.080;25.628;2023-06-10T02:19:56;12.20;;;8.63;;
7057;SDS011;3570;43.080;25.628;2023-06-10T02:22:40;15.27;;;8.90;;
7057;SDS011;3570;43.080;25.628;2023-06-10T02:25:24;12.00;;;7.60;;
7057;SDS011;3570;43.080;25.628;2023-06-10T02:28:08;15.70;;;8.83;;
7057;SDS011;3570;43.080;25.628;2023-06-10T02:30:52;12.10;;;7.57;;
7057;SDS011;3570;43.080;25.628;2023-06-10T02:33:36;11.30;;;7.70;;
7057;SDS011;3570;43.080;25.628;2023-06-10T02:36:23;13.43;;;8.33;;
7057;SDS011;3570;43.080;25.628;2023-06-10T02:39:08;10.07;;;7.63;;
7057;SDS011;3570;43.080;25.628;2023-06-10T02:41:52;12.37;;;7.63;;
7057;SDS011;3570;43.080;25.628;2023-06-10T02:44:36;12.60;;;6.80;;
7057;SDS011;3570;43.080;25.628;2023-06-10T02:47:20;10.37;;;7.33;;
7057;SDS011;3570;43.080;25.628;2023-06-10T02:50:04;11.10;;;7.20;;
7057;SDS011;3570;43.080;25.628;2023-06-10T02:52:49;10.73;;;7.17;;
7057;SDS011;3570;43.080;25.628;2023-06-10T02:55:33;10.87;;;7.03;;
7057;SDS011;3570;43.080;25.628;2023-06-10T02:58:18;11.37;;;7.80;;
7057;SDS011;3570;43.080;25.628;2023-06-10T03:01:03;17.70;;;7.90;;
7057;SDS011;3570;43.080;25.628;2023-06-10T03:03:48;13.80;;;7.90;;
7057;SDS011;3570;43.080;25.628;2023-06-10T03:06:34;15.20;;;8.40;;
7057;SDS011;3570;43.080;25.628;2023-06-10T03:09:19;11.77;;;7.53;;
7057;SDS011;3570;43.080;25.628;2023-06-10T03:12:03;16.63;;;7.57;;
7057;SDS011;3570;43.080;25.628;2023-06-10T03:14:48;15.93;;;8.93;;
7057;SDS011;3570;43.080;25.628;2023-06-10T03:17:33;12.83;;;8.70;;
7057;SDS011;3570;43.080;25.628;2023-06-10T03:20:16;13.27;;;8.80;;
7057;SDS011;3570;43.080;25.628;2023-06-10T03:23:01;13.13;;;7.30;;
7057;SDS011;3570;43.080;25.628;2023-06-10T03:25:45;13.97;;;8.07;;
7057;SDS011;3570;43.080;25.628;2023-06-10T03:28:29;10.43;;;7.10;;
7057;SDS011;3570;43.080;25.628;2023-06-10T03:31:13;9.40;;;6.83;;
7057;SDS011;3570;43.080;25.628;2023-06-10T03:33:57;11.03;;;7.30;;
7057;SDS011;3570;43.080;25.628;2023-06-10T03:36:42;13.87;;;7.47;;
7057;SDS011;3570;43.080;25.628;2023-06-10T03:39:26;10.57;;;6.87;;
7057;SDS011;3570;43.080;25.628;2023-06-10T03:42:12;12.73;;;7.20;;
7057;SDS011;3570;43.080;25.628;2023-06-10T03:44:56;11.70;;;7.23;;
7057;SDS011;3570;43.080;25.628;2023-06-10T03:47:40;17.17;;;7.17;;
7057;SDS011;3570;43.080;25.628;2023-06-10T03:50:24;10.83;;;7.20;;
7057;SDS011;3570;43.080;25.628;2023-06-10T03:53:10;10.03;;;7.63;;
7057;SDS011;3570;43.080;25.628;2023-06-10T03:55:53;12.40;;;8.40;;
7057;SDS011;3570;43.080;25.628;2023-06-10T03:58:37;15.50;;;7.50;;
7057;SDS011;3570;43.080;25.628;2023-06-10T04:01:21;15.47;;;8.27;;
7057;SDS011;3570;43.080;25.628;2023-06-10T04:04:07;12.03;;;7.03;;
7057;SDS011;3570;43.080;25.628;2023-06-10T04:06:50;11.67;;;7.77;;
7057;SDS011;3570;43.080;25.628;2023-06-10T04:09:35;10.60;;;7.07;;
7057;SDS011;3570;43.080;25.628;2023-06-10T04:12:20;13.27;;;7.50;;
7057;SDS011;3570;43.080;25.628;2023-06-10T04:15:04;12.60;;;8.07;;
7057;SDS011;3570;43.080;25.628;2023-06-10T04:17:49;16.23;;;9.03;;
7057;SDS011;3570;43.080;25.628;2023-06-10T04:20:33;14.93;;;8.27;;
7057;SDS011;3570;43.080;25.628;2023-06-10T04:23:17;17.07;;;9.57;;
7057;SDS011;3570;43.080;25.628;2023-06-10T04:26:02;13.67;;;9.23;;
7057;SDS011;3570;43.080;25.628;2023-06-10T04:28:46;18.27;;;10.50;;
7057;SDS011;3570;43.080;25.628;2023-06-10T04:31:30;20.33;;;11.53;;
7057;SDS011;3570;43.080;25.628;2023-06-10T04:34:15;21.17;;;12.70;;
7057;SDS011;3570;43.080;25.628;2023-06-10T04:36:59;23.10;;;13.20;;
7057;SDS011;3570;43.080;25.628;2023-06-10T04:39:44;20.30;;;11.07;;
7057;SDS011;3570;43.080;25.628;2023-06-10T04:42:28;20.33;;;12.23;;
7057;SDS011;3570;43.080;25.628;2023-06-10T04:45:12;23.27;;;12.40;;
7057;SDS011;3570;43.080;25.628;2023-06-10T04:47:56;18.43;;;10.77;;
7057;SDS011;3570;43.080;25.628;2023-06-10T04:50:41;27.87;;;15.23;;
7057;SDS011;3570;43.080;25.628;2023-06-10T04:53:25;23.83;;;14.90;;
7057;SDS011;3570;43.080;25.628;2023-06-10T04:56:10;28.93;;;14.20;;
7057;SDS011;3570;43.080;25.628;2023-06-10T04:58:54;30.13;;;15.20;;
7057;SDS011;3570;43.080;25.628;2023-06-10T05:01:38;21.80;;;13.17;;
7057;SDS011;3570;43.080;25.628;2023-06-10T05:04:22;22.77;;;13.10;;
7057;SDS011;3570;43.080;25.628;2023-06-10T05:07:06;23.10;;;12.90;;
7057;SDS011;3570;43.080;25.628;2023-06-10T05:09:50;20.93;;;13.17;;
7057;SDS011;3570;43.080;25.628;2023-06-10T05:12:34;23.00;;;13.77;;
7057;SDS011;3570;43.080;25.628;2023-06-10T05:15:18;21.83;;;13.30;;
7057;SDS011;3570;43.080;25.628;2023-06-10T05:18:02;18.17;;;12.43;;
7057;SDS011;3570;43.080;25.628;2023-06-10T05:20:47;20.87;;;13.03;;
7057;SDS011;3570;43.080;25.628;2023-06-10T05:23:30;17.00;;;12.07;;
7057;SDS011;3570;43.080;25.628;2023-06-10T05:26:14;16.77;;;11.87;;
7057;SDS011;3570;43.080;25.628;2023-06-10T05:28:59;24.93;;;13.60;;
7057;SDS011;3570;43.080;25.628;2023-06-10T05:31:42;21.93;;;14.63;;
7057;SDS011;3570;43.080;25.628;2023-06-10T05:34:26;23.60;;;15.43;;
7057;SDS011;3570;43.080;25.628;2023-06-10T05:37:10;21.63;;;13.77;;
7057;SDS011;3570;43.080;25.628;2023-06-10T05:39:54;20.23;;;14.50;;
7057;SDS011;3570;43.080;25.628;2023-06-10T05:42:38;19.17;;;12.77;;
7057;SDS011;3570;43.080;25.628;2023-06-10T05:45:23;17.07;;;12.27;;
7057;SDS011;3570;43.080;25.628;2023-06-10T05:48:06;18.17;;;12.43;;
7057;SDS011;3570;43.080;25.628;2023-06-10T05:50:50;17.20;;;12.83;;
7057;SDS011;3570;43.080;25.628;2023-06-10T05:53:34;18.60;;;12.97;;
7057;SDS011;3570;43.080;25.628;2023-06-10T05:56:18;16.80;;;12.90;;
7057;SDS011;3570;43.080;25.628;2023-06-10T05:59:02;19.30;;;13.30;;
7057;SDS011;3570;43.080;25.628;2023-06-10T06:01:47;23.67;;;12.73;;
7057;SDS011;3570;43.080;25.628;2023-06-10T06:04:31;19.67;;;12.63;;
7057;SDS011;3570;43.080;25.628;2023-06-10T06:07:15;23.30;;;13.87;;
7057;SDS011;3570;43.080;25.628;2023-06-10T06:09:59;17.97;;;12.50;;
7057;SDS011;3570;43.080;25.628;2023-06-10T06:12:43;16.53;;;11.60;;
7057;SDS011;3570;43.080;25.628;2023-06-10T06:15:27;17.50;;;11.93;;
7057;SDS011;3570;43.080;25.628;2023-06-10T06:18:11;16.00;;;10.83;;
7057;SDS011;3570;43.080;25.628;2023-06-10T06:20:55;16.43;;;11.07;;
7057;SDS011;3570;43.080;25.628;2023-06-10T06:23:39;17.13;;;10.97;;
7057;SDS011;3570;43.080;25.628;2023-06-10T06:26:23;10.47;;;6.10;;
7057;SDS011;3570;43.080;25.628;2023-06-10T06:29:07;8.27;;;6.07;;
7057;SDS011;3570;43.080;25.628;2023-06-10T06:31:51;7.90;;;4.67;;
7057;SDS011;3570;43.080;25.628;2023-06-10T06:34:35;6.60;;;4.50;;
7057;SDS011;3570;43.080;25.628;2023-06-10T06:37:23;7.40;;;4.63;;
7057;SDS011;3570;43.080;25.628;2023-06-10T06:40:07;7.83;;;4.40;;
7057;SDS011;3570;43.080;25.628;2023-06-10T06:42:52;7.27;;;4.50;;
7057;SDS011;3570;43.080;25.628;2023-06-10T06:45:35;6.47;;;4.50;;
7057;SDS011;3570;43.080;25.628;2023-06-10T06:48:19;8.10;;;4.63;;
7057;SDS011;3570;43.080;25.628;2023-06-10T06:51:04;6.03;;;4.87;;
7057;SDS011;3570;43.080;25.628;2023-06-10T06:53:48;7.37;;;4.50;;
7057;SDS011;3570;43.080;25.628;2023-06-10T06:56:33;8.20;;;5.43;;
7057;SDS011;3570;43.080;25.628;2023-06-10T06:59:17;8.17;;;5.00;;
7057;SDS011;3570;43.080;25.628;2023-06-10T07:02:03;7.27;;;5.27;;
7057;SDS011;3570;43.080;25.628;2023-06-10T07:04:47;7.27;;;5.23;;
7057;SDS011;3570;43.080;25.628;2023-06-10T07:07:33;5.80;;;4.70;;
7057;SDS011;3570;43.080;25.628;2023-06-10T07:10:17;8.67;;;5.40;;
7057;SDS011;3570;43.080;25.628;2023-06-10T07:13:01;7.50;;;5.20;;
7057;SDS011;3570;43.080;25.628;2023-06-10T07:15:46;10.97;;;5.80;;
7057;SDS011;3570;43.080;25.628;2023-06-10T07:18:30;7.73;;;5.23;;
7057;SDS011;3570;43.080;25.628;2023-06-10T07:21:13;8.60;;;5.50;;
7057;SDS011;3570;43.080;25.628;2023-06-10T07:23:58;8.50;;;5.03;;
7057;SDS011;3570;43.080;25.628;2023-06-10T07:26:41;8.23;;;5.73;;
7057;SDS011;3570;43.080;25.628;2023-06-10T07:29:25;10.87;;;5.70;;
7057;SDS011;3570;43.080;25.628;2023-06-10T07:32:09;7.80;;;5.10;;
7057;SDS011;3570;43.080;25.628;2023-06-10T07:34:53;9.70;;;5.50;;
7057;SDS011;3570;43.080;25.628;2023-06-10T07:37:37;7.70;;;5.20;;
7057;SDS011;3570;43.080;25.628;2023-06-10T07:40:21;16.50;;;5.60;;
7057;SDS011;3570;43.080;25.628;2023-06-10T07:43:07;8.07;;;5.93;;
7057;SDS011;3570;43.080;25.628;2023-06-10T07:45:51;10.13;;;5.97;;
7057;SDS011;3570;43.080;25.628;2023-06-10T07:48:35;9.67;;;6.07;;
7057;SDS011;3570;43.080;25.628;2023-06-10T07:51:20;9.03;;;5.27;;
7057;SDS011;3570;43.080;25.628;2023-06-10T07:54:05;13.00;;;5.43;;
7057;SDS011;3570;43.080;25.628;2023-06-10T07:56:49;8.20;;;5.83;;
7057;SDS011;3570;43.080;25.628;2023-06-10T07:59:35;9.27;;;5.20;;
7057;SDS011;3570;43.080;25.628;2023-06-10T08:02:19;7.67;;;5.03;;
7057;SDS011;3570;43.080;25.628;2023-06-10T08:05:03;9.37;;;5.60;;
7057;SDS011;3570;43.080;25.628;2023-06-10T08:07:47;6.57;;;5.03;;
7057;SDS011;3570;43.080;25.628;2023-06-10T08:10:32;8.30;;;4.90;;
7057;SDS011;3570;43.080;25.628;2023-06-10T08:13:16;6.83;;;4.73;;
7057;SDS011;3570;43.080;25.628;2023-06-10T08:16:00;9.87;;;5.30;;
7057;SDS011;3570;43.080;25.628;2023-06-10T08:18:45;7.50;;;5.60;;
7057;SDS011;3570;43.080;25.628;2023-06-10T08:21:29;11.63;;;5.07;;
7057;SDS011;3570;43.080;25.628;2023-06-10T08:24:13;11.07;;;5.53;;
7057;SDS011;3570;43.080;25.628;2023-06-10T08:26:59;9.23;;;5.33;;
7057;SDS011;3570;43.080;25.628;2023-06-10T08:29:43;7.87;;;5.53;;
7057;SDS011;3570;43.080;25.628;2023-06-10T08:32:27;6.73;;;4.60;;
7057;SDS011;3570;43.080;25.628;2023-06-10T08:35:11;6.37;;;4.53;;
7057;SDS011;3570;43.080;25.628;2023-06-10T08:37:56;7.73;;;5.07;;
7057;SDS011;3570;43.080;25.628;2023-06-10T08:40:40;8.47;;;5.13;;
7057;SDS011;3570;43.080;25.628;2023-06-10T08:46:20;8.37;;;5.20;;
7057;SDS011;3570;43.080;25.628;2023-06-10T08:49:07;8.20;;;5.30;;
7057;SDS011;3570;43.080;25.628;2023-06-10T08:51:51;7.80;;;5.27;;
7057;SDS011;3570;43.080;25.628;2023-06-10T08:54:42;9.17;;;5.03;;
7057;SDS011;3570;43.080;25.628;2023-06-10T08:57:30;9.77;;;5.20;;
7057;SDS011;3570;43.080;25.628;2023-06-10T09:00:15;6.30;;;5.10;;
7057;SDS011;3570;43.080;25.628;2023-06-10T09:03:00;6.97;;;5.47;;
7057;SDS011;3570;43.080;25.628;2023-06-10T09:05:46;7.33;;;5.17;;
7057;SDS011;3570;43.080;25.628;2023-06-10T09:08:30;6.73;;;4.63;;
7057;SDS011;3570;43.080;25.628;2023-06-10T09:11:16;5.20;;;4.60;;
7057;SDS011;3570;43.080;25.628;2023-06-10T09:14:00;6.47;;;5.00;;
7057;SDS011;3570;43.080;25.628;2023-06-10T09:16:44;6.90;;;5.00;;
7057;SDS011;3570;43.080;25.628;2023-06-10T09:19:30;11.17;;;5.20;;
7057;SDS011;3570;43.080;25.628;2023-06-10T09:22:14;11.73;;;5.03;;
7057;SDS011;3570;43.080;25.628;2023-06-10T09:25:05;7.80;;;5.27;;
7057;SDS011;3570;43.080;25.628;2023-06-10T09:27:52;8.50;;;5.53;;
7057;SDS011;3570;43.080;25.628;2023-06-10T09:30:38;7.67;;;4.90;;
7057;SDS011;3570;43.080;25.628;2023-06-10T09:33:23;8.23;;;5.13;;
7057;SDS011;3570;43.080;25.628;2023-06-10T09:36:10;7.87;;;5.17;;
7057;SDS011;3570;43.080;25.628;2023-06-10T09:38:56;10.83;;;5.47;;
7057;SDS011;3570;43.080;25.628;2023-06-10T09:41:40;7.55;;;5.47;;
7057;SDS011;3570;43.080;25.628;2023-06-10T09:44:25;7.78;;;5.25;;
7057;SDS011;3570;43.080;25.628;2023-06-10T09:47:09;7.63;;;5.43;;
7057;SDS011;3570;43.080;25.628;2023-06-10T09:50:06;7.32;;;5.30;;
7057;SDS011;3570;43.080;25.628;2023-06-10T09:52:50;8.07;;;5.00;;
7057;SDS011;3570;43.080;25.628;2023-06-10T09:55:37;8.93;;;4.82;;
7057;SDS011;3570;43.080;25.628;2023-06-10T09:58:34;5.97;;;5.10;;
7057;SDS011;3570;43.080;25.628;2023-06-10T10:01:19;6.57;;;5.25;;
7057;SDS011;3570;43.080;25.628;2023-06-10T10:04:04;10.88;;;5.40;;
7057;SDS011;3570;43.080;25.628;2023-06-10T10:06:48;9.25;;;5.32;;
7057;SDS011;3570;43.080;25.628;2023-06-10T10:09:32;6.68;;;5.07;;
7057;SDS011;3570;43.080;25.628;2023-06-10T10:12:16;6.88;;;4.97;;
7057;SDS011;3570;43.080;25.628;2023-06-10T10:15:00;7.50;;;5.13;;
7057;SDS011;3570;43.080;25.628;2023-06-10T10:20:46;8.93;;;5.47;;
7057;SDS011;3570;43.080;25.628;2023-06-10T10:23:40;5.72;;;4.70;;
7057;SDS011;3570;43.080;25.628;2023-06-10T10:26:46;6.00;;;4.90;;
7057;SDS011;3570;43.080;25.628;2023-06-10T10:29:35;4.68;;;4.22;;
7057;SDS011;3570;43.080;25.628;2023-06-10T10:32:32;4.78;;;4.28;;
7057;SDS011;3570;43.080;25.628;2023-06-10T10:35:29;5.47;;;4.10;;
7057;SDS011;3570;43.080;25.628;2023-06-10T10:38:15;9.23;;;4.55;;
7057;SDS011;3570;43.080;25.628;2023-06-10T10:40:59;6.07;;;3.95;;
7057;SDS011;3570;43.080;25.628;2023-06-10T10:43:45;6.63;;;4.20;;
7057;SDS011;3570;43.080;25.628;2023-06-10T10:46:30;7.97;;;4.18;;
7057;SDS011;3570;43.080;25.628;2023-06-10T10:49:14;7.40;;;3.80;;
7057;SDS011;3570;43.080;25.628;2023-06-10T10:51:59;5.43;;;4.03;;
7057;SDS011;3570;43.080;25.628;2023-06-10T10:54:45;5.45;;;4.13;;
7057;SDS011;3570;43.080;25.628;2023-06-10T10:57:30;5.93;;;4.15;;
7057;SDS011;3570;43.080;25.628;2023-06-10T11:00:14;6.57;;;4.18;;
7057;SDS011;3570;43.080;25.628;2023-06-10T11:03:16;5.70;;;4.00;;
7057;SDS011;3570;43.080;25.628;2023-06-10T11:06:01;6.80;;;4.15;;
7057;SDS011;3570;43.080;25.628;2023-06-10T11:08:55;8.50;;;4.07;;
7057;SDS011;3570;43.080;25.628;2023-06-10T11:11:49;7.18;;;4.28;;
7057;SDS011;3570;43.080;25.628;2023-06-10T11:14:33;7.30;;;4.03;;
7057;SDS011;3570;43.080;25.628;2023-06-10T11:17:18;6.30;;;4.22;;
7057;SDS011;3570;43.080;25.628;2023-06-10T11:20:03;5.30;;;4.07;;
7057;SDS011;3570;43.080;25.628;2023-06-10T11:22:58;7.45;;;4.28;;
7057;SDS011;3570;43.080;25.628;2023-06-10T11:25:43;8.68;;;4.13;;
7057;SDS011;3570;43.080;25.628;2023-06-10T11:28:27;7.38;;;4.63;;
7057;SDS011;3570;43.080;25.628;2023-06-10T11:31:24;7.63;;;4.70;;
7057;SDS011;3570;43.080;25.628;2023-06-10T11:34:12;8.73;;;4.18;;
7057;SDS011;3570;43.080;25.628;2023-06-10T11:36:57;5.65;;;4.05;;
7057;SDS011;3570;43.080;25.628;2023-06-10T11:39:43;5.35;;;4.20;;
7057;SDS011;3570;43.080;25.628;2023-06-10T11:42:28;5.60;;;4.25;;
7057;SDS011;3570;43.080;25.628;2023-06-10T11:45:14;6.38;;;4.43;;
7057;SDS011;3570;43.080;25.628;2023-06-10T11:48:00;7.20;;;4.60;;
7057;SDS011;3570;43.080;25.628;2023-06-10T11:50:45;5.68;;;4.45;;
7057;SDS011;3570;43.080;25.628;2023-06-10T11:53:29;10.93;;;4.50;;
7057;SDS011;3570;43.080;25.628;2023-06-10T11:56:12;8.85;;;4.28;;
7057;SDS011;3570;43.080;25.628;2023-06-10T11:58:58;5.35;;;4.68;;
7057;SDS011;3570;43.080;25.628;2023-06-10T12:01:48;6.88;;;4.75;;
7057;SDS011;3570;43.080;25.628;2023-06-10T12:04:32;9.93;;;4.72;;
7057;SDS011;3570;43.080;25.628;2023-06-10T12:07:19;12.68;;;4.40;;
7057;SDS011;3570;43.080;25.628;2023-06-10T12:10:03;7.45;;;4.60;;
7057;SDS011;3570;43.080;25.628;2023-06-10T12:12:48;7.72;;;4.63;;
7057;SDS011;3570;43.080;25.628;2023-06-10T12:15:32;10.50;;;4.68;;
7057;SDS011;3570;43.080;25.628;2023-06-10T12:18:20;4.75;;;4.28;;
7057;SDS011;3570;43.080;25.628;2023-06-10T12:21:23;5.10;;;4.60;;
7057;SDS011;3570;43.080;25.628;2023-06-10T12:24:09;5.13;;;4.38;;
7057;SDS011;3570;43.080;25.628;2023-06-10T12:26:54;6.78;;;4.80;;
7057;SDS011;3570;43.080;25.628;2023-06-10T12:29:39;7.57;;;4.70;;
7057;SDS011;3570;43.080;25.628;2023-06-10T12:32:34;6.05;;;4.72;;
7057;SDS011;3570;43.080;25.628;2023-06-10T12:35:19;8.25;;;4.15;;
7057;SDS011;3570;43.080;25.628;2023-06-10T12:38:08;5.32;;;4.53;;
7057;SDS011;3570;43.080;25.628;2023-06-10T12:41:02;7.05;;;5.03;;
7057;SDS011;3570;43.080;25.628;2023-06-10T12:43:47;5.97;;;4.22;;
7057;SDS011;3570;43.080;25.628;2023-06-10T12:46:38;7.05;;;4.53;;
7057;SDS011;3570;43.080;25.628;2023-06-10T12:49:21;6.65;;;4.78;;
7057;SDS011;3570;43.080;25.628;2023-06-10T12:52:06;8.00;;;4.40;;
7057;SDS011;3570;43.080;25.628;2023-06-10T12:54:50;5.70;;;3.97;;
7057;SDS011;3570;43.080;25.628;2023-06-10T12:57:35;10.05;;;4.47;;
7057;SDS011;3570;43.080;25.628;2023-06-10T13:00:19;6.85;;;4.10;;
7057;SDS011;3570;43.080;25.628;2023-06-10T13:03:03;4.65;;;4.10;;
7057;SDS011;3570;43.080;25.628;2023-06-10T13:05:49;6.65;;;4.50;;
7057;SDS011;3570;43.080;25.628;2023-06-10T13:08:33;5.85;;;4.15;;
7057;SDS011;3570;43.080;25.628;2023-06-10T13:11:17;4.88;;;4.00;;
7057;SDS011;3570;43.080;25.628;2023-06-10T13:14:02;9.07;;;3.80;;
7057;SDS011;3570;43.080;25.628;2023-06-10T13:16:47;5.38;;;4.07;;
7057;SDS011;3570;43.080;25.628;2023-06-10T13:19:32;5.18;;;4.50;;
7057;SDS011;3570;43.080;25.628;2023-06-10T13:22:17;6.40;;;4.43;;
7057;SDS011;3570;43.080;25.628;2023-06-10T13:25:03;8.32;;;4.18;;
7057;SDS011;3570;43.080;25.628;2023-06-10T13:27:50;6.30;;;3.78;;
7057;SDS011;3570;43.080;25.628;2023-06-10T13:30:34;5.53;;;4.53;;
7057;SDS011;3570;43.080;25.628;2023-06-10T13:33:18;8.50;;;3.95;;
7057;SDS011;3570;43.080;25.628;2023-06-10T13:36:02;5.68;;;4.47;;
7057;SDS011;3570;43.080;25.628;2023-06-10T13:38:45;7.00;;;4.88;;
7057;SDS011;3570;43.080;25.628;2023-06-10T13:41:30;7.38;;;4.75;;
7057;SDS011;3570;43.080;25.628;2023-06-10T13:44:14;7.10;;;4.88;;
7057;SDS011;3570;43.080;25.628;2023-06-10T13:46:59;9.73;;;4.82;;
7057;SDS011;3570;43.080;25.628;2023-06-10T13:49:43;8.55;;;4.88;;
7057;SDS011;3570;43.080;25.628;2023-06-10T13:52:27;9.88;;;5.15;;
7057;SDS011;3570;43.080;25.628;2023-06-10T13:55:11;8.40;;;5.03;;
7057;SDS011;3570;43.080;25.628;2023-06-10T13:57:55;10.93;;;5.93;;
7057;SDS011;3570;43.080;25.628;2023-06-10T14:00:39;9.25;;;4.95;;
7057;SDS011;3570;43.080;25.628;2023-06-10T14:03:23;5.20;;;4.70;;
7057;SDS011;3570;43.080;25.628;2023-06-10T14:06:07;6.82;;;5.15;;
7057;SDS011;3570;43.080;25.628;2023-06-10T14:08:52;10.55;;;5.18;;
7057;SDS011;3570;43.080;25.628;2023-06-10T14:11:38;6.20;;;4.63;;
7057;SDS011;3570;43.080;25.628;2023-06-10T14:14:22;10.98;;;4.70;;
7057;SDS011;3570;43.080;25.628;2023-06-10T14:17:06;8.05;;;4.63;;
7057;SDS011;3570;43.080;25.628;2023-06-10T14:19:50;9.27;;;4.90;;
7057;SDS011;3570;43.080;25.628;2023-06-10T14:22:34;9.43;;;5.38;;
7057;SDS011;3570;43.080;25.628;2023-06-10T14:25:18;8.02;;;4.75;;
7057;SDS011;3570;43.080;25.628;2023-06-10T14:28:02;7.97;;;4.15;;
7057;SDS011;3570;43.080;25.628;2023-06-10T14:30:47;6.80;;;4.63;;
7057;SDS011;3570;43.080;25.628;2023-06-10T14:33:31;5.68;;;4.72;;
7057;SDS011;3570;43.080;25.628;2023-06-10T14:36:15;9.07;;;5.18;;
7057;SDS011;3570;43.080;25.628;2023-06-10T14:38:59;7.75;;;4.00;;
7057;SDS011;3570;43.080;25.628;2023-06-10T14:41:43;7.10;;;3.72;;
7057;SDS011;3570;43.080;25.628;2023-06-10T14:44:27;8.68;;;4.18;;
7057;SDS011;3570;43.080;25.628;2023-06-10T14:47:11;7.10;;;3.42;;
7057;SDS011;3570;43.080;25.628;2023-06-10T14:49:55;6.68;;;4.30;;
7057;SDS011;3570;43.080;25.628;2023-06-10T14:52:39;10.35;;;4.20;;
7057;SDS011;3570;43.080;25.628;2023-06-10T14:55:24;10.77;;;3.90;;
7057;SDS011;3570;43.080;25.628;2023-06-10T14:58:08;7.88;;;4.25;;
7057;SDS011;3570;43.080;25.628;2023-06-10T15:00:53;7.78;;;4.28;;
7057;SDS011;3570;43.080;25.628;2023-06-10T15:03:37;7.57;;;4.13;;
7057;SDS011;3570;43.080;25.628;2023-06-10T15:06:21;7.78;;;4.50;;
7057;SDS011;3570;43.080;25.628;2023-06-10T15:09:06;6.80;;;4.53;;
7057;SDS011;3570;43.080;25.628;2023-06-10T15:11:51;7.97;;;3.90;;
7057;SDS011;3570;43.080;25.628;2023-06-10T15:14:35;9.23;;;4.18;;
7057;SDS011;3570;43.080;25.628;2023-06-10T15:17:19;9.90;;;4.70;;
7057;SDS011;3570;43.080;25.628;2023-06-10T15:20:03;7.10;;;4.22;;
7057;SDS011;3570;43.080;25.628;2023-06-10T15:22:48;4.95;;;4.15;;
7057;SDS011;3570;43.080;25.628;2023-06-10T15:25:32;6.65;;;3.67;;
7057;SDS011;3570;43.080;25.628;2023-06-10T15:28:16;5.35;;;4.00;;
7057;SDS011;3570;43.080;25.628;2023-06-10T15:31:01;11.73;;;4.30;;
7057;SDS011;3570;43.080;25.628;2023-06-10T15:33:45;7.13;;;3.70;;
7057;SDS011;3570;43.080;25.628;2023-06-10T15:36:30;4.53;;;3.88;;
7057;SDS011;3570;43.080;25.628;2023-06-10T15:39:14;5.93;;;4.13;;
7057;SDS011;3570;43.080;25.628;2023-06-10T15:41:58;7.25;;;4.40;;
7057;SDS011;3570;43.080;25.628;2023-06-10T15:44:42;4.53;;;3.88;;
7057;SDS011;3570;43.080;25.628;2023-06-10T15:47:27;6.47;;;3.72;;
7057;SDS011;3570;43.080;25.628;2023-06-10T15:50:11;7.85;;;4.18;;
7057;SDS011;3570;43.080;25.628;2023-06-10T15:52:56;5.82;;;4.00;;
7057;SDS011;3570;43.080;25.628;2023-06-10T15:55:40;4.85;;;3.97;;
7057;SDS011;3570;43.080;25.628;2023-06-10T15:58:24;9.43;;;4.50;;
7057;SDS011;3570;43.080;25.628;2023-06-10T16:01:09;10.13;;;4.05;;
7057;SDS011;3570;43.080;25.628;2023-06-10T16:03:54;7.78;;;3.78;;
7057;SDS011;3570;43.080;25.628;2023-06-10T16:06:39;6.00;;;4.35;;
7057;SDS011;3570;43.080;25.628;2023-06-10T16:09:23;6.38;;;4.28;;
7057;SDS011;3570;43.080;25.628;2023-06-10T16:12:08;4.85;;;3.78;;
7057;SDS011;3570;43.080;25.628;2023-06-10T16:14:52;8.85;;;4.35;;
7057;SDS011;3570;43.080;25.628;2023-06-10T16:17:36;5.55;;;4.18;;
7057;SDS011;3570;43.080;25.628;2023-06-10T16:20:21;6.85;;;4.50;;
7057;SDS011;3570;43.080;25.628;2023-06-10T16:23:05;9.25;;;5.45;;
7057;SDS011;3570;43.080;25.628;2023-06-10T16:25:49;5.80;;;4.70;;
7057;SDS011;3570;43.080;25.628;2023-06-10T16:28:34;8.98;;;4.22;;
7057;SDS011;3570;43.080;25.628;2023-06-10T16:31:18;7.20;;;5.55;;
7057;SDS011;3570;43.080;25.628;2023-06-10T16:34:02;7.72;;;5.15;;
7057;SDS011;3570;43.080;25.628;2023-06-10T16:36:46;6.93;;;5.28;;
7057;SDS011;3570;43.080;25.628;2023-06-10T16:39:30;13.55;;;5.10;;
7057;SDS011;3570;43.080;25.628;2023-06-10T16:42:14;7.47;;;5.13;;
7057;SDS011;3570;43.080;25.628;2023-06-10T16:44:58;5.85;;;4.75;;
7057;SDS011;3570;43.080;25.628;2023-06-10T16:47:42;8.00;;;6.53;;
7057;SDS011;3570;43.080;25.628;2023-06-10T16:50:26;7.50;;;5.20;;